»·PEaware :: N1399 KRNO-KMMH

N1399 :: KRNO-KMMH

FLIGHT INFORMATION

Flight Status: Arrived
Operator: Privately registered:
United States
More flights under this callsign
Pilot: David C. (16084)
Aircraft: ECLIPSE 500
(EA50)
More flights by this aircraft type
Origin: KRNO Reno/Tahoe Intl
United States
Destination: KMMH Mammoth Yosemite
United States
More flights between these airports :: More routes between these airports
Route: +ZEFFR6 PESKE NIKOL
File this flight plan on PilotEdge
Remarks:
Altitude:
(Current/Filed)
19,000ft
Speed:
(Current/Filed)
339kts
Departed: 22-Mar-18 05:20 PM
Arrived: 22-Mar-18 05:53 PM
Distance/Time
Traveled:
120nm/0:33
Distance/Time
To Go:
Arrived

Flight Plot

Page will automatically refresh every two minutes.

Flight plan parsing failed; only flown route is shown


Map Options




Map Legend


Flown Route
Filed Route
Departure Airport
Arrival Airport
Navaid (VOR, NDB)
Fix

Horizontal Profiles

Position Reports

Time Latitude Longitude Heading Altitude Ground
Speed
22-Mar-18 17:05 39.506249 -119.765243 90 4418ft 0kts
22-Mar-18 17:06 39.506249 -119.765243 90 4418ft 0kts
22-Mar-18 17:07 39.506249 -119.765243 90 4418ft 0kts
22-Mar-18 17:08 39.506249 -119.765243 90 4418ft 0kts
22-Mar-18 17:09 39.506249 -119.765243 90 4418ft 0kts
22-Mar-18 17:10 39.506249 -119.765243 90 4418ft 0kts
22-Mar-18 17:11 39.506249 -119.765243 90 4418ft 0kts
22-Mar-18 17:12 39.506256 -119.765167 72 4418ft 1kts
22-Mar-18 17:13 39.506586 -119.765105 298 4418ft 0kts
22-Mar-18 17:14 39.507859 -119.765772 0 4418ft 14kts
22-Mar-18 17:15 39.512142 -119.765137 0 4418ft 21kts
22-Mar-18 17:16 39.513702 -119.765664 271 4418ft 0kts
22-Mar-18 17:17 39.513702 -119.765664 271 4418ft 0kts
22-Mar-18 17:18 39.513408 -119.766618 211 4418ft 12kts
22-Mar-18 17:19 39.497461 -119.766917 179 4707ft 131kts
22-Mar-18 17:20 39.451289 -119.768278 179 7165ft 183kts
22-Mar-18 17:21 39.399972 -119.769038 178 10078ft 192kts
22-Mar-18 17:22 39.352042 -119.768825 190 13172ft 174kts
22-Mar-18 17:23 39.306815 -119.746472 147 15782ft 206kts
22-Mar-18 17:24 39.268567 -119.693575 147 18042ft 208kts
22-Mar-18 17:25 39.225944 -119.633796 144 18937ft 269kts
22-Mar-18 17:26 39.169417 -119.552988 141 18947ft 334kts
22-Mar-18 17:27 39.102620 -119.465038 145 18971ft 355kts
22-Mar-18 17:28 39.032808 -119.379672 145 18998ft 354kts
22-Mar-18 17:29 38.966847 -119.298339 145 18992ft 354kts
22-Mar-18 17:30 38.897325 -119.212606 144 18978ft 353kts
22-Mar-18 17:31 38.830766 -119.130637 144 18965ft 353kts
22-Mar-18 17:32 38.755586 -119.057887 169 18943ft 332kts
22-Mar-18 17:33 38.668866 -119.019248 167 18937ft 333kts
22-Mar-18 17:34 38.582704 -118.978261 166 18936ft 333kts
22-Mar-18 17:35 38.496338 -118.936598 166 18936ft 333kts
22-Mar-18 17:36 38.410531 -118.895135 165 18935ft 333kts
22-Mar-18 17:37 38.324152 -118.853457 165 18935ft 332kts
22-Mar-18 17:38 38.238015 -118.811997 165 18934ft 332kts
22-Mar-18 17:39 38.152290 -118.770841 165 18565ft 330kts
22-Mar-18 17:40 38.075257 -118.733868 165 17342ft 284kts
22-Mar-18 17:41 38.001766 -118.698822 165 16136ft 283kts
22-Mar-18 17:42 37.930066 -118.662136 162 14936ft 282kts
22-Mar-18 17:43 37.860837 -118.624959 161 13783ft 279kts
22-Mar-18 17:44 37.791202 -118.587563 160 12626ft 277kts
22-Mar-18 17:45 37.721920 -118.550407 160 11455ft 271kts
22-Mar-18 17:46 37.654127 -118.523061 195 10799ft 251kts
22-Mar-18 17:47 37.626878 -118.590307 254 9793ft 226kts
22-Mar-18 17:48 37.617534 -118.662690 255 9016ft 174kts
22-Mar-18 17:49 37.615060 -118.714450 266 8812ft 161kts
22-Mar-18 17:50 37.617251 -118.771117 262 8143ft 136kts
22-Mar-18 17:51 37.618559 -118.811449 267 7853ft 119kts
22-Mar-18 17:52 37.626375 -118.847377 288 7129ft 26kts
22-Mar-18 17:53 37.627855 -118.849698 66 7129ft 3kts
22-Mar-18 17:54 37.627358 -118.847649 108 7129ft 13kts
22-Mar-18 17:55 37.627238 -118.845013 192 7129ft 0kts

Navigation Log

Ident Type
Flight plan parsing failed, navigation log unavailable